createdAt,value
2022-12-11T00:01:53.623Z,60.60
2022-12-11T00:04:21.549Z,60.96
2022-12-11T00:06:50.836Z,60.95
2022-12-11T00:09:18.992Z,60.96
2022-12-11T00:11:46.855Z,60.80
2022-12-11T00:14:15.339Z,60.91
2022-12-11T00:16:43.594Z,60.72
2022-12-11T00:19:11.382Z,61.11
2022-12-11T00:21:39.081Z,60.50
2022-12-11T00:24:08.844Z,61.10
2022-12-11T00:26:36.485Z,60.94
2022-12-11T00:29:04.951Z,60.92
2022-12-11T00:31:32.727Z,60.61
2022-12-11T00:34:02.505Z,61.12
2022-12-11T00:36:30.265Z,60.67
2022-12-11T00:38:58.007Z,60.87
2022-12-11T00:41:27.021Z,60.33
2022-12-11T00:43:54.732Z,60.64
2022-12-11T00:46:22.448Z,60.74
2022-12-11T00:48:50.905Z,61.18
2022-12-11T00:51:19.142Z,60.73
2022-12-11T00:53:46.882Z,60.79
2022-12-11T00:56:17.057Z,60.61
2022-12-11T00:58:46.441Z,61.09
2022-12-11T01:01:21.388Z,61.17
2022-12-11T01:03:49.450Z,60.91
2022-12-11T01:06:19.496Z,60.79
2022-12-11T01:08:47.865Z,60.92
2022-12-11T01:11:16.604Z,61.02
2022-12-11T01:13:44.285Z,60.93
2022-12-11T01:16:14.908Z,61.01
2022-12-11T01:18:43.091Z,61.18
2022-12-11T01:21:13.672Z,60.96
2022-12-11T01:23:41.718Z,61.06
2022-12-11T01:26:10.608Z,61.18
2022-12-11T01:28:38.400Z,61.45
2022-12-11T01:31:10.119Z,61.15
2022-12-11T01:33:39.669Z,61.02
2022-12-11T01:36:11.775Z,61.24
2022-12-11T01:38:39.524Z,61.20
2022-12-11T01:41:10.168Z,61.57
2022-12-11T01:44:00.176Z,61.64
2022-12-11T01:46:30.030Z,61.41
2022-12-11T01:48:59.776Z,61.11
2022-12-11T01:51:30.500Z,61.49
2022-12-11T01:54:01.651Z,61.23
2022-12-11T01:56:33.830Z,61.34
2022-12-11T01:59:07.210Z,61.50
2022-12-11T02:01:38.196Z,61.45
2022-12-11T02:04:09.389Z,61.91
2022-12-11T02:06:39.475Z,61.19
2022-12-11T02:09:10.718Z,61.84
2022-12-11T02:11:51.819Z,61.79
2022-12-11T02:14:29.654Z,61.90
2022-12-11T02:17:05.101Z,61.76
2022-12-11T02:19:51.912Z,61.21
2022-12-11T02:22:29.116Z,61.47
2022-12-11T02:25:10.184Z,61.35
2022-12-11T02:27:45.773Z,61.37
2022-12-11T02:30:17.148Z,61.93
2022-12-11T02:32:48.499Z,61.68
2022-12-11T02:35:20.699Z,61.63
2022-12-11T02:37:50.834Z,61.48
2022-12-11T02:40:23.890Z,61.92
2022-12-11T02:42:53.313Z,61.92
2022-12-11T02:45:25.083Z,61.64
2022-12-11T02:47:53.772Z,61.41
2022-12-11T02:50:23.412Z,61.75
2022-12-11T02:52:55.802Z,61.72
2022-12-11T02:55:27.345Z,61.50
2022-12-11T02:58:03.468Z,61.56
2022-12-11T03:00:33.133Z,61.41
2022-12-11T03:03:00.925Z,61.88
2022-12-11T03:05:28.737Z,62.08
2022-12-11T03:07:57.175Z,61.88
2022-12-11T03:10:25.200Z,62.15
2022-12-11T03:12:56.547Z,61.58
2022-12-11T03:15:30.694Z,62.15
2022-12-11T03:18:05.131Z,61.64
2022-12-11T03:20:39.049Z,62.12
2022-12-11T03:23:16.524Z,61.80
2022-12-11T03:25:51.877Z,61.95
2022-12-11T03:28:21.714Z,61.87
2022-12-11T03:30:52.464Z,62.02
2022-12-11T03:33:26.497Z,62.25
2022-12-11T03:35:57.186Z,61.87
2022-12-11T03:38:29.468Z,61.87
2022-12-11T03:41:01.906Z,62.26
2022-12-11T03:43:30.721Z,61.85
2022-12-11T03:46:00.646Z,61.71
2022-12-11T03:48:34.347Z,61.88
2022-12-11T03:51:04.854Z,62.01
2022-12-11T03:53:34.242Z,61.80
2022-12-11T03:56:03.711Z,62.13
2022-12-11T03:58:31.861Z,61.95
2022-12-11T04:00:59.542Z,61.69
2022-12-11T04:03:27.271Z,61.71
2022-12-11T04:05:57.079Z,62.28
2022-12-11T04:08:24.798Z,62.42
2022-12-11T04:11:14.002Z,61.84
2022-12-11T04:13:42.643Z,61.46
2022-12-11T04:16:09.994Z,61.62
2022-12-11T04:19:03.457Z,61.99
2022-12-11T04:21:50.173Z,61.72
2022-12-11T04:24:17.842Z,61.63
2022-12-11T04:26:47.182Z,61.86
2022-12-11T04:29:15.740Z,61.45
2022-12-11T04:31:43.463Z,61.40
2022-12-11T04:34:11.170Z,61.63
2022-12-11T04:36:40.219Z,61.59
2022-12-11T04:39:08.000Z,61.92
2022-12-11T04:41:37.175Z,61.44
2022-12-11T04:44:05.281Z,61.63
2022-12-11T04:46:33.286Z,61.30
2022-12-11T04:49:01.081Z,61.39
2022-12-11T04:51:29.399Z,61.31
2022-12-11T04:53:59.441Z,61.38
2022-12-11T04:56:27.210Z,61.20
2022-12-11T04:58:54.933Z,61.41
2022-12-11T05:01:23.701Z,62.05
2022-12-11T05:03:51.997Z,61.64
2022-12-11T05:06:19.683Z,61.61
2022-12-11T05:08:47.311Z,61.41
2022-12-11T05:11:16.829Z,61.46
2022-12-11T05:13:45.413Z,61.19
2022-12-11T05:16:15.446Z,61.11
2022-12-11T05:18:43.465Z,61.36
2022-12-11T05:21:12.859Z,61.07
2022-12-11T05:23:40.857Z,61.31
2022-12-11T05:26:12.175Z,60.72
2022-12-11T05:28:41.677Z,61.17
2022-12-11T05:31:13.081Z,61.16
2022-12-11T05:33:41.612Z,61.16
2022-12-11T05:36:10.034Z,61.46
2022-12-11T05:38:37.720Z,61.49
2022-12-11T05:41:07.462Z,60.91
2022-12-11T05:43:37.197Z,61.37
2022-12-11T05:46:11.178Z,60.78
2022-12-11T05:48:39.857Z,61.12
2022-12-11T05:51:08.868Z,61.19
2022-12-11T05:53:36.889Z,61.41
2022-12-11T05:56:06.317Z,61.19
2022-12-11T05:58:34.713Z,61.26
2022-12-11T06:01:02.560Z,61.05
2022-12-11T06:03:31.572Z,61.34
2022-12-11T06:06:02.828Z,60.94
2022-12-11T06:08:30.693Z,59.99
2022-12-11T06:10:58.704Z,60.02
2022-12-11T06:13:26.457Z,59.26
2022-12-11T06:15:54.204Z,58.75
2022-12-11T06:18:22.216Z,58.19
2022-12-11T06:20:51.293Z,57.78
2022-12-11T06:23:18.969Z,57.33
2022-12-11T06:25:46.735Z,56.74
2022-12-11T06:28:14.435Z,56.65
2022-12-11T06:30:42.068Z,56.24
2022-12-11T06:33:10.200Z,55.98
2022-12-11T06:35:42.059Z,56.08
2022-12-11T06:38:11.596Z,55.85
2022-12-11T06:40:39.811Z,56.67
2022-12-11T06:43:07.512Z,56.86
2022-12-11T06:45:35.200Z,57.58
2022-12-11T06:48:03.152Z,57.97
2022-12-11T06:50:31.039Z,58.12
2022-12-11T06:53:01.643Z,58.76
2022-12-11T06:55:30.989Z,59.13
2022-12-11T06:57:58.706Z,58.87
2022-12-11T07:00:27.150Z,59.31
2022-12-11T07:02:54.892Z,58.87
2022-12-11T07:05:22.671Z,59.18
2022-12-11T07:07:50.518Z,59.60
2022-12-11T07:10:18.295Z,59.42
2022-12-11T07:12:47.319Z,59.57
2022-12-11T07:15:15.013Z,59.76
2022-12-11T07:17:42.706Z,59.77
2022-12-11T07:20:11.343Z,59.67
2022-12-11T07:22:44.636Z,59.79
2022-12-11T07:25:14.246Z,59.71
2022-12-11T07:27:42.569Z,59.97
2022-12-11T07:30:13.109Z,60.34
2022-12-11T07:32:40.868Z,59.82
2022-12-11T07:35:09.863Z,60.43
2022-12-11T07:37:38.187Z,59.91
2022-12-11T07:40:06.894Z,60.47
2022-12-11T07:42:34.585Z,60.41
2022-12-11T07:45:02.282Z,59.89
2022-12-11T07:47:31.317Z,60.58
2022-12-11T07:49:58.973Z,60.11
2022-12-11T07:52:26.732Z,59.82
2022-12-11T07:54:54.427Z,59.44
2022-12-11T07:57:22.082Z,59.29
2022-12-11T07:59:49.802Z,58.69
2022-12-11T08:02:17.540Z,57.80
2022-12-11T08:04:46.574Z,57.79
2022-12-11T08:07:14.456Z,57.08
2022-12-11T08:09:42.398Z,56.73
2022-12-11T08:12:10.170Z,56.37
2022-12-11T08:14:37.902Z,56.16
2022-12-11T08:17:05.629Z,55.39
2022-12-11T08:19:33.364Z,55.59
2022-12-11T08:22:02.403Z,54.84
2022-12-11T08:24:30.092Z,55.49
2022-12-11T08:26:57.778Z,55.59
2022-12-11T08:29:25.471Z,55.97
2022-12-11T08:31:53.303Z,56.67
2022-12-11T08:34:23.572Z,57.11
2022-12-11T08:36:51.260Z,57.59
2022-12-11T08:39:20.372Z,57.82
2022-12-11T08:41:48.067Z,57.98
2022-12-11T08:44:16.896Z,58.45
2022-12-11T08:46:45.131Z,58.56
2022-12-11T08:49:12.913Z,58.90
2022-12-11T08:51:40.589Z,58.83
2022-12-11T08:54:08.375Z,58.60
2022-12-11T08:56:37.385Z,58.94
2022-12-11T08:59:06.375Z,59.12
2022-12-11T09:01:34.485Z,59.12
2022-12-11T09:04:02.274Z,59.14
2022-12-11T09:06:33.439Z,59.42
2022-12-11T09:09:02.355Z,59.61
2022-12-11T09:11:32.528Z,59.51
2022-12-11T09:14:07.200Z,59.34
2022-12-11T09:16:39.657Z,58.99
2022-12-11T09:19:09.323Z,58.71
2022-12-11T09:21:37.058Z,58.00
2022-12-11T09:24:05.255Z,58.05
2022-12-11T09:26:33.046Z,57.87
2022-12-11T09:29:04.932Z,57.16
2022-12-11T09:31:34.928Z,56.83
2022-12-11T09:34:06.093Z,56.04
2022-12-11T09:36:34.244Z,56.10
2022-12-11T09:39:03.169Z,55.72
2022-12-11T09:41:40.466Z,54.94
2022-12-11T09:44:20.902Z,55.04
2022-12-11T09:46:49.611Z,54.84
2022-12-11T09:49:26.088Z,55.64
2022-12-11T09:52:04.957Z,55.57
2022-12-11T09:54:33.855Z,56.41
2022-12-11T09:57:11.185Z,56.94
2022-12-11T09:59:54.392Z,57.04
2022-12-11T10:02:35.296Z,57.71
2022-12-11T10:05:15.775Z,57.81
2022-12-11T10:07:50.488Z,58.00
2022-12-11T10:10:31.116Z,58.28
2022-12-11T10:13:06.617Z,58.41
2022-12-11T10:15:44.988Z,58.41
2022-12-11T10:18:17.196Z,58.36
2022-12-11T10:20:45.934Z,58.70
2022-12-11T10:23:19.973Z,58.98
2022-12-11T10:25:54.934Z,59.01
2022-12-11T10:28:22.936Z,58.92
2022-12-11T10:31:00.424Z,59.14
2022-12-11T10:33:35.689Z,59.21
2022-12-11T10:36:03.550Z,59.20
2022-12-11T10:38:33.222Z,59.03
2022-12-11T10:41:03.619Z,59.47
2022-12-11T10:43:36.129Z,58.85
2022-12-11T10:46:07.618Z,58.49
2022-12-11T10:48:35.361Z,58.44
2022-12-11T10:51:07.014Z,57.81
2022-12-11T10:53:35.603Z,56.97
2022-12-11T10:56:03.690Z,56.86
2022-12-11T10:58:34.255Z,56.44
2022-12-11T11:01:10.102Z,56.00
2022-12-11T11:03:52.892Z,55.74
2022-12-11T11:06:22.402Z,55.97
2022-12-11T11:08:51.966Z,56.28
2022-12-11T11:11:26.947Z,56.43
2022-12-11T11:14:07.205Z,57.17
2022-12-11T11:16:39.231Z,57.51
2022-12-11T11:19:08.223Z,57.82
2022-12-11T11:21:36.822Z,58.00
2022-12-11T11:24:04.996Z,58.27
2022-12-11T11:27:04.765Z,58.28
2022-12-11T11:29:29.808Z,58.80
2022-12-11T11:32:02.089Z,58.65
2022-12-11T11:34:30.948Z,58.74
2022-12-11T11:37:05.537Z,58.62
2022-12-11T11:39:36.935Z,58.65
2022-12-11T11:42:11.377Z,58.94
2022-12-11T11:44:44.309Z,58.92
2022-12-11T11:47:18.432Z,58.93
2022-12-11T11:49:54.301Z,58.68
2022-12-11T11:52:30.302Z,58.97
2022-12-11T11:55:09.586Z,59.39
2022-12-11T11:57:43.436Z,59.09
2022-12-11T12:00:20.651Z,58.89
2022-12-11T12:02:51.320Z,59.35
2022-12-11T12:05:24.552Z,59.24
2022-12-11T12:08:05.738Z,59.08
2022-12-11T12:10:45.197Z,59.10
2022-12-11T12:13:48.639Z,59.27
2022-12-11T12:16:51.451Z,59.25
2022-12-11T12:19:20.970Z,59.14
2022-12-11T12:21:52.412Z,59.29
2022-12-11T12:24:31.441Z,59.08
2022-12-11T12:27:17.577Z,59.32
2022-12-11T12:30:03.008Z,59.16
2022-12-11T12:32:38.605Z,59.31
2022-12-11T12:35:19.642Z,59.29
2022-12-11T12:37:58.129Z,59.04
2022-12-11T12:40:33.044Z,58.99
2022-12-11T12:43:10.076Z,59.06
2022-12-11T12:45:42.961Z,58.96
2022-12-11T12:48:11.241Z,58.62
2022-12-11T12:50:44.732Z,58.60
2022-12-11T12:53:17.657Z,58.09
2022-12-11T12:55:47.686Z,57.55
2022-12-11T12:58:27.532Z,57.01
2022-12-11T13:00:55.834Z,56.66
2022-12-11T13:03:26.965Z,55.93
2022-12-11T13:06:01.886Z,56.04
2022-12-11T13:08:32.514Z,56.25
2022-12-11T13:11:03.254Z,56.31
2022-12-11T13:13:35.682Z,56.56
2022-12-11T13:16:26.924Z,57.16
2022-12-11T13:18:54.896Z,57.55
2022-12-11T13:21:31.042Z,57.61
2022-12-11T13:24:15.314Z,58.03
2022-12-11T13:26:44.215Z,57.99
2022-12-11T13:29:30.320Z,58.06
2022-12-11T13:32:00.902Z,57.71
2022-12-11T13:34:34.002Z,58.18
2022-12-11T13:37:04.592Z,58.31
2022-12-11T13:39:34.995Z,58.31
2022-12-11T13:42:05.602Z,58.23
2022-12-11T13:44:38.933Z,58.44
2022-12-11T13:47:12.889Z,58.27
2022-12-11T13:49:43.670Z,57.99
2022-12-11T13:52:19.293Z,57.71
2022-12-11T13:54:50.196Z,57.47
2022-12-11T13:57:20.940Z,57.17
2022-12-11T13:59:50.467Z,57.23
2022-12-11T14:02:22.194Z,57.73
2022-12-11T14:04:52.912Z,57.59
2022-12-11T14:07:27.869Z,57.72
2022-12-11T14:10:01.714Z,57.21
2022-12-11T14:12:31.305Z,57.53
2022-12-11T14:15:02.267Z,57.69
2022-12-11T14:17:32.576Z,57.57
2022-12-11T14:20:07.188Z,57.53
2022-12-11T14:22:36.734Z,57.58
2022-12-11T14:25:21.697Z,57.02
2022-12-11T14:27:51.192Z,56.65
2022-12-11T14:30:23.429Z,55.82
2022-12-11T14:32:53.893Z,55.09
2022-12-11T14:35:30.134Z,54.76
2022-12-11T14:38:05.449Z,54.88
2022-12-11T14:40:39.349Z,54.42
2022-12-11T14:43:12.650Z,53.64
2022-12-11T14:45:43.688Z,53.23
2022-12-11T14:48:17.673Z,53.27
2022-12-11T14:50:50.084Z,53.85
2022-12-11T14:53:24.290Z,53.86
2022-12-11T14:55:52.781Z,54.99
2022-12-11T14:58:24.068Z,55.22
2022-12-11T15:01:00.858Z,55.52
2022-12-11T15:03:34.238Z,55.78
2022-12-11T15:06:03.664Z,56.47
2022-12-11T15:08:34.442Z,56.12
2022-12-11T15:11:08.577Z,56.20
2022-12-11T15:13:40.262Z,56.84
2022-12-11T15:16:10.139Z,56.60
2022-12-11T15:18:42.347Z,56.56
2022-12-11T15:21:13.253Z,57.05
2022-12-11T15:23:53.428Z,56.98
2022-12-11T15:26:22.389Z,57.20
2022-12-11T15:29:00.555Z,57.26
2022-12-11T15:31:30.088Z,57.52
2022-12-11T15:33:58.238Z,57.42
2022-12-11T15:36:31.279Z,57.52
2022-12-11T15:39:00.420Z,57.38
2022-12-11T15:41:33.156Z,57.22
2022-12-11T15:44:02.993Z,57.48
2022-12-11T15:46:31.386Z,57.40
2022-12-11T15:48:59.134Z,57.26
2022-12-11T15:51:27.535Z,57.49
2022-12-11T15:53:55.384Z,57.24
2022-12-11T15:56:24.535Z,57.35
2022-12-11T15:58:52.315Z,57.09
2022-12-11T16:01:20.111Z,56.89
2022-12-11T16:03:50.319Z,56.08
2022-12-11T16:06:18.037Z,55.38
2022-12-11T16:08:45.774Z,54.47
2022-12-11T16:11:14.889Z,54.39
2022-12-11T16:13:43.929Z,54.74
2022-12-11T16:16:12.235Z,54.46
2022-12-11T16:18:40.027Z,54.60
2022-12-11T16:21:08.057Z,55.07
2022-12-11T16:23:35.781Z,55.04
2022-12-11T16:26:08.458Z,55.13
2022-12-11T16:28:36.237Z,55.57
2022-12-11T16:31:05.322Z,55.94
2022-12-11T16:33:33.073Z,56.39
2022-12-11T16:36:00.763Z,55.83
2022-12-11T16:38:28.465Z,56.38
2022-12-11T16:41:02.322Z,56.17
2022-12-11T16:43:30.032Z,56.62
2022-12-11T16:45:57.912Z,56.91
2022-12-11T16:48:27.016Z,56.89
2022-12-11T16:50:54.920Z,56.78
2022-12-11T16:53:23.157Z,57.23
2022-12-11T16:55:51.286Z,57.07
2022-12-11T16:58:20.079Z,56.97
2022-12-11T17:00:48.790Z,56.95
2022-12-11T17:03:17.112Z,57.02
2022-12-11T17:05:46.294Z,57.49
2022-12-11T17:08:14.080Z,57.24
2022-12-11T17:10:43.100Z,57.32
2022-12-11T17:13:10.770Z,57.34
2022-12-11T17:15:41.887Z,57.12
2022-12-11T17:18:10.125Z,57.43
2022-12-11T17:20:41.752Z,57.47
2022-12-11T17:23:11.189Z,57.22
2022-12-11T17:25:41.001Z,57.26
2022-12-11T17:28:08.985Z,57.17
2022-12-11T17:30:40.720Z,57.13
2022-12-11T17:33:08.818Z,57.31
2022-12-11T17:35:36.726Z,56.92
2022-12-11T17:38:04.552Z,57.06
2022-12-11T17:40:33.634Z,57.01
2022-12-11T17:43:01.284Z,57.12
2022-12-11T17:45:28.948Z,57.22
2022-12-11T17:47:56.665Z,57.40
2022-12-11T17:50:24.378Z,57.08
2022-12-11T17:52:52.084Z,57.14
2022-12-11T17:55:19.848Z,56.88
2022-12-11T17:57:49.008Z,56.42
2022-12-11T18:00:17.022Z,56.15
2022-12-11T18:02:44.719Z,56.09
2022-12-11T18:05:13.350Z,55.45
2022-12-11T18:07:41.241Z,54.80
2022-12-11T18:10:09.564Z,54.49
2022-12-11T18:12:37.460Z,54.90
2022-12-11T18:15:07.543Z,54.90
2022-12-11T18:17:35.412Z,54.71
2022-12-11T18:20:03.515Z,55.58
2022-12-11T18:22:31.248Z,55.59
2022-12-11T18:24:59.294Z,55.53
2022-12-11T18:27:27.630Z,55.96
2022-12-11T18:29:55.345Z,55.95
2022-12-11T18:32:24.428Z,56.14
2022-12-11T18:34:52.370Z,56.20
2022-12-11T18:37:24.717Z,56.73
2022-12-11T18:39:55.367Z,56.84
2022-12-11T18:42:38.230Z,56.92
2022-12-11T18:45:06.941Z,56.82
2022-12-11T18:47:37.312Z,56.82
2022-12-11T18:50:08.229Z,56.85
2022-12-11T18:52:36.448Z,56.95
2022-12-11T18:55:04.415Z,57.01
2022-12-11T18:57:32.454Z,57.32
2022-12-11T19:00:04.702Z,56.96
2022-12-11T19:02:32.427Z,57.17
2022-12-11T19:05:01.585Z,57.13
2022-12-11T19:07:29.422Z,57.15
2022-12-11T19:09:57.122Z,57.11
2022-12-11T19:12:25.115Z,57.44
2022-12-11T19:14:52.811Z,57.40
2022-12-11T19:17:20.527Z,57.00
2022-12-11T19:19:48.190Z,56.62
2022-12-11T19:22:17.244Z,56.03
2022-12-11T19:24:45.044Z,55.98
2022-12-11T19:27:13.851Z,55.48
2022-12-11T19:29:41.788Z,55.08
2022-12-11T19:32:09.649Z,54.39
2022-12-11T19:34:38.492Z,53.79
2022-12-11T19:37:06.266Z,53.43
2022-12-11T19:39:35.361Z,53.98
2022-12-11T19:42:03.024Z,54.00
2022-12-11T19:44:30.701Z,54.05
2022-12-11T19:46:58.463Z,54.38
2022-12-11T19:49:26.167Z,55.21
2022-12-11T19:51:53.838Z,55.00
2022-12-11T19:54:21.612Z,55.17
2022-12-11T19:56:50.650Z,55.66
2022-12-11T19:59:18.677Z,56.26
2022-12-11T20:01:48.111Z,56.07
2022-12-11T20:04:17.757Z,55.94
2022-12-11T20:06:46.719Z,56.06
2022-12-11T20:09:15.447Z,56.17
2022-12-11T20:11:45.886Z,55.94
2022-12-11T20:14:23.520Z,56.25
2022-12-11T20:17:11.084Z,56.49
2022-12-11T20:19:40.554Z,56.29
2022-12-11T20:22:09.079Z,56.51
2022-12-11T20:24:37.244Z,56.40
2022-12-11T20:27:05.124Z,56.39
2022-12-11T20:29:34.206Z,56.65
2022-12-11T20:32:02.010Z,56.63
2022-12-11T20:34:29.722Z,56.83
2022-12-11T20:36:57.418Z,56.63
2022-12-11T20:39:25.186Z,56.73
2022-12-11T20:41:52.864Z,56.77
2022-12-11T20:44:20.542Z,57.07
2022-12-11T20:46:50.665Z,56.86
2022-12-11T20:49:18.417Z,57.18
2022-12-11T20:51:46.096Z,57.19
2022-12-11T20:54:13.848Z,56.96
2022-12-11T20:56:41.560Z,56.99
2022-12-11T20:59:09.631Z,57.26
2022-12-11T21:01:37.301Z,57.13
2022-12-11T21:04:06.395Z,57.01
2022-12-11T21:06:36.066Z,57.29
2022-12-11T21:09:06.273Z,57.26
2022-12-11T21:11:34.001Z,57.44
2022-12-11T21:14:01.734Z,57.50
2022-12-11T21:16:29.714Z,57.22
2022-12-11T21:18:58.803Z,57.79
2022-12-11T21:21:27.863Z,57.33
2022-12-11T21:23:55.558Z,57.61
2022-12-11T21:26:23.750Z,57.62
2022-12-11T21:28:51.558Z,57.48
2022-12-11T21:31:20.527Z,57.11
2022-12-11T21:33:49.072Z,57.53
2022-12-11T21:36:17.180Z,57.59
2022-12-11T21:38:47.648Z,57.25
2022-12-11T21:41:17.438Z,57.57
2022-12-11T21:44:40.907Z,57.70
2022-12-11T21:46:34.499Z,57.72
2022-12-11T21:49:02.225Z,57.44
2022-12-11T21:51:36.882Z,57.36
2022-12-11T21:54:10.276Z,57.80
2022-12-11T21:56:38.011Z,57.71
2022-12-11T21:59:05.765Z,57.85
2022-12-11T22:01:36.068Z,57.83
2022-12-11T22:04:04.910Z,57.45
2022-12-11T22:06:32.641Z,57.50
2022-12-11T22:09:00.380Z,57.58
2022-12-11T22:11:31.897Z,57.68
2022-12-11T22:13:59.640Z,57.53
2022-12-11T22:16:27.352Z,57.97
2022-12-11T22:18:55.132Z,57.63
2022-12-11T22:21:22.771Z,57.75
2022-12-11T22:23:50.586Z,57.68
2022-12-11T22:26:20.890Z,57.68
2022-12-11T22:28:50.606Z,57.50
2022-12-11T22:31:20.592Z,57.52
2022-12-11T22:33:49.614Z,57.44
2022-12-11T22:36:17.785Z,57.53
2022-12-11T22:38:45.685Z,57.79
2022-12-11T22:41:20.456Z,57.75
2022-12-11T22:43:51.280Z,57.35
2022-12-11T22:46:21.615Z,57.74
2022-12-11T22:48:49.404Z,57.42
2022-12-11T22:51:17.174Z,57.78
2022-12-11T22:53:44.953Z,57.53
2022-12-11T22:56:13.858Z,57.75
2022-12-11T22:58:41.822Z,57.79
2022-12-11T23:01:14.306Z,57.59
2022-12-11T23:03:42.116Z,57.79
2022-12-11T23:06:12.338Z,57.46
2022-12-11T23:08:40.795Z,57.53
2022-12-11T23:11:12.072Z,58.02
2022-12-11T23:13:39.740Z,58.06
2022-12-11T23:16:07.478Z,57.80
2022-12-11T23:18:36.758Z,57.58
2022-12-11T23:21:05.389Z,57.67
2022-12-11T23:23:33.232Z,57.66
2022-12-11T23:26:01.446Z,57.49
2022-12-11T23:28:29.162Z,57.44
2022-12-11T23:30:56.873Z,57.66
2022-12-11T23:33:24.655Z,57.33
2022-12-11T23:35:53.741Z,57.74
2022-12-11T23:38:21.479Z,57.53
2022-12-11T23:40:49.542Z,57.66
2022-12-11T23:43:17.342Z,57.38
2022-12-11T23:45:45.545Z,57.72
2022-12-11T23:48:14.318Z,57.29
2022-12-11T23:50:43.745Z,57.26
2022-12-11T23:53:13.397Z,57.61
2022-12-11T23:55:42.366Z,57.31
2022-12-11T23:58:10.766Z,57.73
